createdAt,value
2019-03-29T00:02:08.300Z,86.39
2019-03-29T00:04:40.089Z,86.53
2019-03-29T00:07:11.561Z,86.47
2019-03-29T00:09:43.408Z,86.42
2019-03-29T00:12:14.876Z,87.00
2019-03-29T00:14:46.506Z,87.42
2019-03-29T00:17:18.356Z,87.40
2019-03-29T00:19:50.038Z,87.34
2019-03-29T00:22:21.691Z,86.91
2019-03-29T00:24:53.351Z,87.43
2019-03-29T00:27:24.909Z,87.35
2019-03-29T00:29:56.672Z,87.37
2019-03-29T00:32:28.122Z,86.84
2019-03-29T00:34:59.697Z,87.12
2019-03-29T00:37:31.340Z,87.27
2019-03-29T00:40:03.399Z,87.51
2019-03-29T00:42:34.760Z,87.48
2019-03-29T00:45:08.971Z,87.58
2019-03-29T00:47:40.730Z,88.00
2019-03-29T00:50:13.511Z,88.65
2019-03-29T00:52:44.847Z,88.80
2019-03-29T00:55:16.627Z,89.35
2019-03-29T00:57:48.383Z,89.35
2019-03-29T01:00:19.840Z,89.88
2019-03-29T01:02:51.391Z,90.21
2019-03-29T01:05:23.165Z,89.80
2019-03-29T01:08:07.139Z,89.99
2019-03-29T01:10:27.783Z,90.27
2019-03-29T01:13:00.474Z,90.51
2019-03-29T01:15:32.241Z,90.81
2019-03-29T01:18:03.898Z,90.73
2019-03-29T01:20:35.765Z,90.71
2019-03-29T01:23:07.316Z,90.76
2019-03-29T01:25:38.877Z,90.59
2019-03-29T01:28:11.256Z,90.46
2019-03-29T01:30:44.334Z,90.42
2019-03-29T01:33:16.103Z,90.50
2019-03-29T01:35:47.867Z,90.96
2019-03-29T01:38:22.155Z,91.23
2019-03-29T01:40:53.014Z,91.28
2019-03-29T01:43:24.875Z,91.60
2019-03-29T01:45:56.435Z,91.54
2019-03-29T01:48:28.218Z,91.49
2019-03-29T01:50:59.861Z,91.57
2019-03-29T01:53:31.505Z,91.62
2019-03-29T01:56:02.958Z,91.57
2019-03-29T01:58:34.620Z,91.66
2019-03-29T02:01:06.494Z,91.64
2019-03-29T02:03:37.938Z,91.78
2019-03-29T02:06:09.702Z,91.89
2019-03-29T02:08:41.259Z,92.22
2019-03-29T02:11:13.032Z,92.03
2019-03-29T02:13:45.793Z,91.90
2019-03-29T02:16:17.663Z,91.73
2019-03-29T02:18:49.173Z,91.67
2019-03-29T02:21:20.975Z,91.56
2019-03-29T02:23:52.529Z,91.34
2019-03-29T02:26:24.086Z,91.01
2019-03-29T02:28:55.678Z,90.79
2019-03-29T02:31:28.790Z,90.53
2019-03-29T02:34:00.389Z,90.42
2019-03-29T02:36:31.632Z,90.19
2019-03-29T02:39:03.716Z,90.15
2019-03-29T02:41:35.677Z,89.99
2019-03-29T02:44:07.934Z,89.57
2019-03-29T02:46:39.536Z,89.57
2019-03-29T02:49:16.885Z,89.54
2019-03-29T02:51:48.654Z,89.55
2019-03-29T02:54:20.200Z,89.15
2019-03-29T02:56:51.954Z,88.98
2019-03-29T02:59:23.836Z,89.00
2019-03-29T03:01:55.484Z,88.54
2019-03-29T03:04:27.345Z,88.39
2019-03-29T03:06:58.907Z,88.62
2019-03-29T03:09:30.675Z,88.35
2019-03-29T03:12:02.524Z,88.44
2019-03-29T03:14:34.075Z,88.24
2019-03-29T03:17:05.945Z,87.93
2019-03-29T03:19:37.500Z,87.95
2019-03-29T03:22:09.253Z,87.97
2019-03-29T03:24:41.123Z,87.69
2019-03-29T03:27:12.590Z,87.59
2019-03-29T03:29:47.860Z,87.54
2019-03-29T03:32:17.834Z,87.59
2019-03-29T03:34:49.389Z,87.45
2019-03-29T03:37:21.065Z,87.50
2019-03-29T03:39:52.598Z,87.48
2019-03-29T03:42:24.567Z,87.33
2019-03-29T03:44:56.015Z,87.26
2019-03-29T03:47:28.391Z,87.21
2019-03-29T03:50:01.083Z,86.44
2019-03-29T03:52:33.344Z,85.98
2019-03-29T03:55:06.399Z,84.58
2019-03-29T03:57:39.122Z,83.69
2019-03-29T04:00:10.571Z,83.91
2019-03-29T04:02:43.254Z,83.55
2019-03-29T04:05:15.024Z,83.49
2019-03-29T04:07:46.775Z,82.83
2019-03-29T04:10:18.330Z,81.96
2019-03-29T04:12:50.092Z,82.07
2019-03-29T04:15:21.650Z,81.85
2019-03-29T04:17:53.295Z,81.32
2019-03-29T04:20:25.066Z,80.92
2019-03-29T04:22:56.822Z,79.30
2019-03-29T04:25:28.680Z,78.59
2019-03-29T04:28:00.165Z,77.91
2019-03-29T04:30:31.901Z,76.83
2019-03-29T04:33:03.454Z,76.14
2019-03-29T04:35:35.208Z,75.94
2019-03-29T04:38:06.833Z,75.55
2019-03-29T04:40:38.527Z,74.95
2019-03-29T04:43:10.387Z,74.20
2019-03-29T04:45:41.890Z,74.22
2019-03-29T04:48:13.235Z,74.10
2019-03-29T04:51:24.208Z,73.87
2019-03-29T04:53:55.701Z,73.97
2019-03-29T04:56:26.957Z,74.01
2019-03-29T04:58:59.188Z,73.37
2019-03-29T05:01:30.506Z,73.15
2019-03-29T05:04:02.127Z,73.34
2019-03-29T05:06:33.375Z,72.24
2019-03-29T05:09:05.879Z,72.15
2019-03-29T05:11:37.002Z,71.54
2019-03-29T05:14:08.353Z,71.82
2019-03-29T05:16:39.597Z,71.56
2019-03-29T05:19:10.950Z,71.22
2019-03-29T05:21:42.199Z,70.52
2019-03-29T05:24:13.548Z,70.95
2019-03-29T05:26:44.889Z,70.08
2019-03-29T05:29:16.252Z,70.84
2019-03-29T05:31:47.491Z,69.59
2019-03-29T05:34:18.847Z,69.27
2019-03-29T05:36:50.183Z,69.36
2019-03-29T05:39:21.551Z,68.23
2019-03-29T05:41:53.005Z,67.27
2019-03-29T05:44:24.351Z,67.54
2019-03-29T05:46:55.602Z,67.81
2019-03-29T05:49:26.954Z,67.52
2019-03-29T05:51:58.102Z,67.77
2019-03-29T05:54:29.659Z,68.78
2019-03-29T05:57:00.900Z,68.00
2019-03-29T05:59:32.358Z,68.00
2019-03-29T06:02:03.618Z,67.75
2019-03-29T06:04:35.056Z,67.60
2019-03-29T06:07:06.307Z,68.58
2019-03-29T06:09:37.564Z,67.14
2019-03-29T06:12:09.010Z,66.82
2019-03-29T06:14:40.152Z,67.10
2019-03-29T06:17:11.404Z,65.43
2019-03-29T06:19:42.650Z,66.50
2019-03-29T06:22:14.206Z,65.99
2019-03-29T06:24:45.662Z,65.26
2019-03-29T06:27:16.915Z,64.90
2019-03-29T06:29:48.256Z,64.07
2019-03-29T06:32:19.813Z,62.84
2019-03-29T06:34:50.888Z,63.67
2019-03-29T06:37:22.316Z,63.07
2019-03-29T06:39:53.376Z,62.94
2019-03-29T06:42:24.592Z,63.51
2019-03-29T06:44:55.961Z,63.78
2019-03-29T06:47:27.415Z,62.81
2019-03-29T06:49:58.859Z,63.14
2019-03-29T06:52:30.121Z,64.66
2019-03-29T06:55:01.443Z,65.69
2019-03-29T06:57:34.141Z,65.29
2019-03-29T07:00:06.108Z,64.52
2019-03-29T07:02:37.259Z,64.53
2019-03-29T07:05:08.435Z,64.07
2019-03-29T07:07:40.058Z,63.10
2019-03-29T07:10:11.320Z,62.38
2019-03-29T07:12:42.759Z,62.60
2019-03-29T07:15:14.107Z,62.89
2019-03-29T07:17:45.343Z,61.10
2019-03-29T07:20:16.803Z,60.96
2019-03-29T07:22:48.369Z,59.10
2019-03-29T07:25:19.816Z,59.85
2019-03-29T07:27:52.355Z,59.24
2019-03-29T07:30:24.429Z,59.94
2019-03-29T07:32:55.923Z,59.58
2019-03-29T07:35:27.268Z,57.42
2019-03-29T07:37:58.745Z,57.76
2019-03-29T07:40:30.282Z,59.13
2019-03-29T07:43:01.833Z,57.64
2019-03-29T07:45:34.413Z,57.10
2019-03-29T07:48:05.750Z,56.71
2019-03-29T07:50:37.420Z,57.88
2019-03-29T07:53:08.772Z,54.39
2019-03-29T07:55:40.008Z,55.67
2019-03-29T07:58:11.464Z,54.07
2019-03-29T08:00:42.904Z,55.97
2019-03-29T08:03:15.403Z,53.25
2019-03-29T08:05:46.738Z,53.32
2019-03-29T08:08:24.828Z,56.26
2019-03-29T08:10:53.795Z,54.21
2019-03-29T08:13:25.171Z,51.20
2019-03-29T08:15:56.555Z,51.64
2019-03-29T08:18:28.112Z,51.97
2019-03-29T08:20:59.562Z,51.47
2019-03-29T08:23:30.912Z,50.90
2019-03-29T08:26:02.180Z,49.50
2019-03-29T08:28:33.514Z,53.76
2019-03-29T08:31:04.671Z,56.70
2019-03-29T08:33:36.219Z,52.11
2019-03-29T08:36:07.672Z,53.48
2019-03-29T08:38:38.814Z,49.42
2019-03-29T08:41:10.057Z,50.08
2019-03-29T08:43:41.400Z,49.93
2019-03-29T08:46:12.868Z,47.45
2019-03-29T08:48:44.221Z,49.53
2019-03-29T08:51:15.585Z,50.11
2019-03-29T08:53:46.728Z,49.23
2019-03-29T08:56:18.051Z,50.94
2019-03-29T08:58:49.527Z,51.87
2019-03-29T09:01:21.084Z,50.97
2019-03-29T09:04:03.199Z,52.00
2019-03-29T09:06:29.913Z,54.81
2019-03-29T09:08:59.534Z,46.18
2019-03-29T09:11:30.766Z,47.57
2019-03-29T09:14:02.536Z,48.22
2019-03-29T09:16:33.583Z,42.46
2019-03-29T09:19:04.816Z,43.38
2019-03-29T09:21:36.183Z,45.11
2019-03-29T09:24:21.239Z,43.82
2019-03-29T09:26:40.817Z,45.89
2019-03-29T09:29:12.075Z,46.21
2019-03-29T09:31:43.633Z,43.78
2019-03-29T09:34:14.883Z,43.63
2019-03-29T09:36:46.128Z,45.69
2019-03-29T09:39:18.116Z,44.60
2019-03-29T09:41:49.243Z,44.16
2019-03-29T09:44:20.501Z,43.77
2019-03-29T09:46:51.940Z,42.33
2019-03-29T09:49:23.189Z,43.01
2019-03-29T09:51:54.644Z,43.08
2019-03-29T09:54:25.879Z,43.92
2019-03-29T09:56:57.296Z,43.20
2019-03-29T09:59:28.468Z,43.52
2019-03-29T10:02:00.046Z,42.42
2019-03-29T10:04:31.398Z,44.14
2019-03-29T10:07:03.987Z,43.30
2019-03-29T10:09:35.329Z,42.90
2019-03-29T10:12:06.663Z,43.89
2019-03-29T10:14:38.029Z,41.73
2019-03-29T10:17:09.479Z,43.28
2019-03-29T10:19:40.525Z,44.15
2019-03-29T10:22:11.877Z,43.92
2019-03-29T10:24:43.130Z,44.90
2019-03-29T10:27:14.472Z,43.02
2019-03-29T10:29:45.840Z,47.27
2019-03-29T10:32:17.175Z,46.83
2019-03-29T10:34:48.412Z,45.28
2019-03-29T10:37:19.766Z,46.72
2019-03-29T10:39:51.212Z,44.58
2019-03-29T10:42:22.680Z,46.26
2019-03-29T10:44:53.969Z,43.80
2019-03-29T10:47:42.037Z,43.02
2019-03-29T10:49:58.691Z,42.30
2019-03-29T10:52:30.014Z,43.80
2019-03-29T10:55:01.410Z,45.65
2019-03-29T10:57:32.447Z,45.04
2019-03-29T11:00:09.418Z,45.70
2019-03-29T11:02:39.845Z,45.39
2019-03-29T11:05:10.986Z,43.68
2019-03-29T11:07:42.642Z,45.18
2019-03-29T11:10:17.365Z,44.96
2019-03-29T11:12:48.716Z,45.52
2019-03-29T11:15:20.370Z,44.60
2019-03-29T11:17:51.422Z,43.67
2019-03-29T11:20:22.754Z,45.92
2019-03-29T11:22:54.121Z,44.40
2019-03-29T11:25:25.386Z,43.66
2019-03-29T11:27:57.846Z,42.92
2019-03-29T11:30:41.421Z,43.95
2019-03-29T11:33:02.271Z,44.02
2019-03-29T11:35:33.639Z,41.24
2019-03-29T11:38:05.093Z,42.84
2019-03-29T11:40:36.134Z,41.70
2019-03-29T11:43:07.437Z,41.37
2019-03-29T11:45:38.840Z,41.09
2019-03-29T11:48:10.088Z,41.73
2019-03-29T11:50:41.435Z,40.14
2019-03-29T11:53:12.594Z,39.74
2019-03-29T11:55:43.844Z,39.05
2019-03-29T11:58:15.284Z,39.46
2019-03-29T12:00:46.515Z,40.76
2019-03-29T12:03:18.087Z,40.84
2019-03-29T12:05:49.537Z,42.01
2019-03-29T12:08:20.718Z,41.63
2019-03-29T12:10:52.042Z,40.84
2019-03-29T12:13:25.132Z,41.00
2019-03-29T12:15:56.361Z,39.56
2019-03-29T12:18:27.834Z,39.70
2019-03-29T12:20:59.360Z,41.18
2019-03-29T12:23:30.616Z,41.25
2019-03-29T12:26:01.870Z,40.41
2019-03-29T12:28:33.439Z,41.23
2019-03-29T12:31:04.585Z,42.37
2019-03-29T12:33:35.832Z,41.53
2019-03-29T12:36:06.900Z,40.79
2019-03-29T12:38:38.234Z,39.62
2019-03-29T12:41:09.473Z,40.23
2019-03-29T12:43:54.666Z,40.50
2019-03-29T12:46:13.817Z,39.81
2019-03-29T12:48:45.470Z,41.48
2019-03-29T12:51:16.528Z,40.86
2019-03-29T12:53:47.761Z,40.23
2019-03-29T12:56:19.012Z,39.85
2019-03-29T12:58:50.088Z,39.43
2019-03-29T13:01:21.767Z,41.12
2019-03-29T13:03:53.061Z,39.58
2019-03-29T13:06:24.310Z,38.58
2019-03-29T13:08:55.576Z,38.32
2019-03-29T13:11:26.713Z,39.60
2019-03-29T13:14:09.405Z,39.63
2019-03-29T13:16:31.360Z,39.36
2019-03-29T13:19:02.701Z,39.68
2019-03-29T13:21:33.750Z,40.05
2019-03-29T13:24:04.795Z,41.89
2019-03-29T13:26:36.040Z,40.90
2019-03-29T13:29:07.390Z,39.44
2019-03-29T13:31:38.846Z,41.38
2019-03-29T13:34:10.097Z,41.35
2019-03-29T13:36:41.446Z,41.77
2019-03-29T13:39:12.593Z,41.47
2019-03-29T13:41:43.841Z,41.20
2019-03-29T13:44:23.636Z,42.05
2019-03-29T13:46:48.296Z,41.41
2019-03-29T13:49:19.332Z,41.00
2019-03-29T13:51:50.881Z,41.57
2019-03-29T13:54:22.316Z,41.96
2019-03-29T13:56:53.582Z,41.87
2019-03-29T13:59:25.140Z,42.57
2019-03-29T14:01:56.587Z,40.92
2019-03-29T14:04:27.773Z,40.67
2019-03-29T14:06:59.087Z,40.55
2019-03-29T14:09:30.542Z,42.48
2019-03-29T14:12:01.919Z,40.79
2019-03-29T14:14:38.327Z,40.65
2019-03-29T14:17:07.158Z,41.42
2019-03-29T14:19:38.794Z,41.76
2019-03-29T14:22:10.507Z,42.10
2019-03-29T14:24:42.033Z,40.97
2019-03-29T14:27:13.790Z,40.99
2019-03-29T14:29:45.345Z,41.71
2019-03-29T14:32:16.994Z,41.80
2019-03-29T14:34:48.556Z,42.64
2019-03-29T14:37:21.036Z,42.89
2019-03-29T14:39:52.585Z,42.87
2019-03-29T14:42:24.147Z,42.48
2019-03-29T14:44:55.795Z,42.80
2019-03-29T14:47:39.703Z,42.85
2019-03-29T14:50:00.750Z,42.48
2019-03-29T14:52:32.306Z,42.18
2019-03-29T14:55:06.117Z,43.15
2019-03-29T14:57:37.665Z,44.20
2019-03-29T15:00:11.663Z,42.44
2019-03-29T15:02:43.041Z,43.76
2019-03-29T15:05:14.507Z,44.11
2019-03-29T15:07:46.242Z,44.13
2019-03-29T15:10:28.346Z,43.99
2019-03-29T15:12:59.580Z,44.42
2019-03-29T15:15:31.362Z,44.42
2019-03-29T15:18:02.908Z,44.87
2019-03-29T15:20:34.561Z,45.04
2019-03-29T15:23:06.333Z,45.08
2019-03-29T15:25:40.566Z,45.83
2019-03-29T15:28:11.257Z,45.86
2019-03-29T15:30:42.834Z,46.96
2019-03-29T15:33:14.577Z,46.46
2019-03-29T15:35:46.356Z,47.10
2019-03-29T15:38:17.889Z,47.64
2019-03-29T15:40:49.662Z,47.39
2019-03-29T15:43:21.533Z,47.52
2019-03-29T15:45:52.982Z,47.94
2019-03-29T15:48:24.797Z,48.68
2019-03-29T15:50:56.707Z,48.76
2019-03-29T15:53:28.267Z,49.34
2019-03-29T15:55:59.935Z,49.42
2019-03-29T15:58:31.479Z,49.63
2019-03-29T16:01:03.235Z,49.59
2019-03-29T16:03:34.690Z,50.45
2019-03-29T16:06:06.351Z,50.79
2019-03-29T16:08:38.212Z,50.76
2019-03-29T16:11:17.158Z,52.15
2019-03-29T16:13:44.189Z,51.30
2019-03-29T16:16:15.745Z,51.40
2019-03-29T16:18:47.492Z,51.56
2019-03-29T16:21:19.250Z,51.96
2019-03-29T16:23:50.842Z,51.78
2019-03-29T16:26:22.602Z,52.94
2019-03-29T16:28:54.226Z,53.03
2019-03-29T16:31:26.099Z,52.47
2019-03-29T16:33:57.971Z,53.48
2019-03-29T16:36:29.621Z,53.17
2019-03-29T16:39:01.173Z,52.94
2019-03-29T16:41:34.253Z,53.79
2019-03-29T16:44:07.487Z,53.68
2019-03-29T16:46:39.326Z,54.06
2019-03-29T16:49:10.875Z,53.70
2019-03-29T16:51:42.713Z,53.90
2019-03-29T16:54:14.201Z,54.08
2019-03-29T16:56:45.858Z,55.09
2019-03-29T16:59:17.400Z,55.37
2019-03-29T17:01:51.226Z,54.97
2019-03-29T17:04:22.275Z,54.47
2019-03-29T17:06:53.915Z,55.16
2019-03-29T17:09:25.376Z,55.59
2019-03-29T17:11:57.228Z,55.66
2019-03-29T17:14:28.993Z,54.99
2019-03-29T17:17:00.543Z,54.92
2019-03-29T17:19:32.202Z,55.68
2019-03-29T17:22:03.963Z,55.99
2019-03-29T17:24:36.336Z,56.18
2019-03-29T17:27:07.894Z,56.27
2019-03-29T17:29:39.657Z,56.03
2019-03-29T17:32:11.210Z,56.19
2019-03-29T17:34:42.964Z,56.39
2019-03-29T17:37:14.720Z,57.47
2019-03-29T17:39:46.390Z,56.93
2019-03-29T17:42:18.046Z,57.63
2019-03-29T17:44:49.607Z,57.34
2019-03-29T17:47:21.355Z,57.53
2019-03-29T17:49:52.808Z,57.84
2019-03-29T17:52:24.675Z,57.96
2019-03-29T17:54:56.149Z,57.58
2019-03-29T17:57:27.893Z,57.96
2019-03-29T17:59:59.442Z,58.16
2019-03-29T18:02:31.207Z,58.60
2019-03-29T18:05:02.955Z,58.50
2019-03-29T18:07:34.933Z,58.48
2019-03-29T18:10:08.536Z,58.61
2019-03-29T18:12:39.881Z,59.09
2019-03-29T18:15:11.333Z,58.66
2019-03-29T18:17:42.996Z,59.28
2019-03-29T18:20:15.162Z,59.30
2019-03-29T18:22:46.636Z,59.77
2019-03-29T18:25:18.375Z,59.03
2019-03-29T18:27:49.929Z,60.05
2019-03-29T18:30:30.389Z,59.86
2019-03-29T18:33:01.946Z,59.70
2019-03-29T18:35:34.122Z,60.33
2019-03-29T18:38:05.505Z,60.42
2019-03-29T18:40:37.226Z,60.50
2019-03-29T18:43:08.677Z,61.19
2019-03-29T18:45:41.694Z,61.10
2019-03-29T18:48:13.432Z,61.18
2019-03-29T18:50:45.093Z,61.10
2019-03-29T18:53:16.952Z,61.62
2019-03-29T18:55:48.507Z,61.55
2019-03-29T18:58:20.057Z,62.15
2019-03-29T19:00:51.814Z,62.10
2019-03-29T19:03:23.478Z,63.01
2019-03-29T19:05:55.341Z,63.21
2019-03-29T19:08:26.805Z,63.73
2019-03-29T19:10:58.464Z,64.50
2019-03-29T19:13:30.107Z,64.63
2019-03-29T19:16:01.974Z,65.36
2019-03-29T19:18:33.627Z,65.46
2019-03-29T19:21:05.490Z,65.70
2019-03-29T19:23:37.055Z,64.70
2019-03-29T19:26:08.700Z,63.99
2019-03-29T19:28:40.455Z,63.79
2019-03-29T19:31:12.325Z,63.58
2019-03-29T19:33:44.194Z,63.68
2019-03-29T19:36:15.950Z,63.01
2019-03-29T19:38:47.502Z,63.90
2019-03-29T19:41:19.367Z,62.89
2019-03-29T19:43:50.920Z,62.40
2019-03-29T19:46:22.377Z,62.26
2019-03-29T19:48:53.932Z,62.21
2019-03-29T19:51:25.581Z,61.91
2019-03-29T19:54:07.381Z,62.16
2019-03-29T19:56:30.439Z,62.09
2019-03-29T19:59:02.215Z,62.70
2019-03-29T20:01:33.662Z,62.37
2019-03-29T20:04:05.309Z,62.94
2019-03-29T20:06:37.065Z,62.56
2019-03-29T20:09:09.552Z,62.98
2019-03-29T20:11:41.327Z,62.84
2019-03-29T20:14:13.167Z,62.98
2019-03-29T20:16:44.925Z,63.26
2019-03-29T20:19:19.952Z,63.06
2019-03-29T20:21:49.883Z,63.11
2019-03-29T20:24:21.364Z,63.98
2019-03-29T20:26:53.197Z,64.01
2019-03-29T20:29:24.759Z,64.83
2019-03-29T20:31:56.410Z,64.50
2019-03-29T20:34:27.961Z,63.30
2019-03-29T20:36:59.614Z,63.57
2019-03-29T20:39:31.395Z,63.38
2019-03-29T20:42:02.925Z,62.85
2019-03-29T20:44:34.598Z,63.08
2019-03-29T20:47:06.670Z,63.09
2019-03-29T20:49:38.118Z,62.68
2019-03-29T20:52:09.672Z,62.84
2019-03-29T20:54:41.433Z,63.21
2019-03-29T20:57:12.852Z,62.93
2019-03-29T20:59:44.573Z,62.99
2019-03-29T21:02:16.190Z,63.32
2019-03-29T21:04:47.860Z,62.54
2019-03-29T21:07:19.734Z,63.20
2019-03-29T21:09:51.379Z,62.77
2019-03-29T21:12:23.150Z,63.08
2019-03-29T21:14:54.912Z,62.97
2019-03-29T21:17:26.557Z,63.49
2019-03-29T21:19:58.418Z,63.55
2019-03-29T21:22:29.975Z,63.78
2019-03-29T21:25:01.642Z,64.17
2019-03-29T21:27:33.191Z,63.83
2019-03-29T21:30:06.999Z,63.67
2019-03-29T21:32:38.658Z,63.53
2019-03-29T21:35:10.420Z,63.85
2019-03-29T21:37:41.888Z,64.23
2019-03-29T21:40:13.432Z,64.13
2019-03-29T21:42:45.169Z,64.21
2019-03-29T21:45:27.941Z,64.57
2019-03-29T21:48:01.847Z,64.84
2019-03-29T21:50:23.533Z,64.97
2019-03-29T21:52:55.196Z,64.89
2019-03-29T21:55:26.850Z,65.33
2019-03-29T21:57:58.502Z,65.34
2019-03-29T22:00:30.259Z,65.69
2019-03-29T22:03:02.136Z,65.62
2019-03-29T22:05:33.688Z,65.81
2019-03-29T22:08:05.447Z,65.74
2019-03-29T22:10:37.305Z,65.92
2019-03-29T22:13:08.779Z,66.17
2019-03-29T22:15:40.620Z,66.33
2019-03-29T22:18:12.091Z,66.30
2019-03-29T22:20:44.851Z,66.93
2019-03-29T22:23:16.505Z,66.32
2019-03-29T22:25:48.172Z,66.59
2019-03-29T22:28:19.940Z,66.27
2019-03-29T22:30:51.682Z,66.28
2019-03-29T22:33:26.119Z,66.76
2019-03-29T22:35:59.003Z,67.03
2019-03-29T22:38:30.555Z,66.97
2019-03-29T22:41:02.019Z,67.70
2019-03-29T22:43:33.873Z,67.45
2019-03-29T22:46:05.329Z,68.05
2019-03-29T22:48:36.887Z,68.62
2019-03-29T22:51:08.639Z,69.21
2019-03-29T22:53:40.391Z,69.32
2019-03-29T22:56:12.060Z,69.58
2019-03-29T22:58:43.525Z,69.97
2019-03-29T23:01:15.475Z,69.91
2019-03-29T23:03:48.321Z,70.34
2019-03-29T23:06:20.124Z,70.21
2019-03-29T23:08:51.678Z,71.52
2019-03-29T23:11:23.347Z,71.52
2019-03-29T23:13:55.000Z,71.92
2019-03-29T23:16:30.173Z,71.70
2019-03-29T23:19:06.347Z,71.66
2019-03-29T23:21:33.040Z,71.81
2019-03-29T23:24:04.594Z,71.55
2019-03-29T23:26:36.152Z,71.83
2019-03-29T23:29:07.798Z,71.46
2019-03-29T23:31:39.579Z,71.85
2019-03-29T23:34:11.327Z,72.01
2019-03-29T23:36:43.091Z,72.13
2019-03-29T23:39:14.541Z,72.65
2019-03-29T23:41:46.307Z,72.89
2019-03-29T23:44:18.063Z,73.31
2019-03-29T23:46:49.620Z,73.26
2019-03-29T23:49:21.715Z,73.78
2019-03-29T23:51:53.304Z,73.99
2019-03-29T23:54:25.005Z,74.23
2019-03-29T23:56:56.649Z,74.17
2019-03-29T23:59:28.428Z,74.88
